Terminal Aerodrome Forecast
Issued by NWS Duluth, MN

Home | Current Version | Previous Version | Text Only | Print | Product List | Glossary On
Versions: 1 2 3 4 5 6 7 8 9 10 11 12 13 14 15 16 17
000
FTUS43 KDLH 021143
TAFINL
TAF
KINL 021143Z 0212/0312 22004KT P6SM SCT045
     FM021600 24008KT P6SM VCSH SCT050 BKN250
     FM030100 25007KT P6SM SCT060 BKN250
     FM030500 25007KT P6SM VCSH BKN040 OVC090=

USA.gov is the U.S. government's official web portal to all federal, state and local government web resources and services.